Time;durP1;ratioP1;P1;durP2;ratioP2;P2;SDS_P1;SDS_P2;PMS_P1;PMS_P2;Temp;Humidity;BMP_temperature;BMP_pressure;BME280_temperature;BME280_humidity;BME280_pressure;Samples;Min_cycle;Max_cycle;Signal;HPM_P1;HPM_P2
2023/07/17 00:02:04;;;;;;;7.33;2.43;;;19.60;99.90;;;;;;5066851;28;20419;-70
2023/07/17 00:04:29;;;;;;;8.37;2.50;;;19.60;1.00;;;;;;5066675;28;20406;-70
2023/07/17 00:06:55;;;;;;;10.03;2.73;;;19.60;99.90;;;;;;5068038;28;20698;-70
2023/07/17 00:09:20;;;;;;;6.63;2.13;;;19.60;99.90;;;;;;5070572;28;20452;-70
2023/07/17 00:11:46;;;;;;;8.37;3.30;;;19.70;99.90;;;;;;5070938;28;20983;-70
2023/07/17 00:14:12;;;;;;;10.53;2.50;;;19.70;99.90;;;;;;5071252;28;20387;-70
2023/07/17 00:16:37;;;;;;;8.13;2.30;;;19.80;99.90;;;;;;5071216;28;20470;-70
2023/07/17 00:19:03;;;;;;;7.80;2.60;;;19.90;99.90;;;;;;5070666;28;20479;-70
2023/07/17 00:21:28;;;;;;;7.30;2.40;;;19.90;1.00;;;;;;5070677;28;20899;-70
2023/07/17 00:23:54;;;;;;;7.93;2.40;;;19.90;42.50;;;;;;5071222;28;20445;-70
2023/07/17 00:26:20;;;;;;;8.40;2.83;;;19.90;1.00;;;;;;5054970;28;20389;-69
2023/07/17 00:28:46;;;;;;;8.80;2.57;;;20.00;1.00;;;;;;5053183;28;20466;-69
2023/07/17 00:31:11;;;;;;;7.50;2.35;;;19.90;1.00;;;;;;5050098;28;20393;-70
2023/07/17 00:33:37;;;;;;;8.00;2.40;;;19.90;1.00;;;;;;5050195;28;20886;-69
2023/07/17 00:36:02;;;;;;;8.30;2.50;;;19.90;99.90;;;;;;5050472;28;20385;-69
2023/07/17 00:38:28;;;;;;;7.50;2.10;;;19.90;1.00;;;;;;5050178;28;20382;-70
2023/07/17 00:40:53;;;;;;;6.47;2.20;;;20.10;99.90;;;;;;5054280;28;20517;-69
2023/07/17 00:43:19;;;;;;;8.20;2.38;;;20.20;99.90;;;;;;5070040;28;20944;-69
2023/07/17 00:45:45;;;;;;;7.82;2.50;;;20.20;1.00;;;;;;5070468;28;20471;-69
2023/07/17 00:48:11;;;;;;;10.10;2.50;;;20.20;99.90;;;;;;5069992;28;20412;-69
2023/07/17 00:50:38;;;;;;;7.63;2.72;;;20.10;99.90;;;;;;5070279;28;20920;-68
2023/07/17 00:53:04;;;;;;;7.88;2.50;;;20.10;99.90;;;;;;5070243;28;20944;-69
2023/07/17 00:55:32;;;;;;;7.50;2.50;;;20.10;99.90;;;;;;5069548;28;20392;-69
2023/07/17 00:57:59;;;;;;;7.45;2.40;;;20.10;99.90;;;;;;5069793;28;20391;-69
2023/07/17 01:00:25;;;;;;;9.50;2.45;;;20.00;99.90;;;;;;5070407;28;20419;-69
2023/07/17 01:02:52;;;;;;;8.43;2.33;;;20.00;1.00;;;;;;5069713;28;20534;-69
2023/07/17 01:05:17;;;;;;;7.47;2.47;;;20.10;1.00;;;;;;5069879;28;20769;-69
2023/07/17 01:07:43;;;;;;;7.80;2.45;;;20.10;1.00;;;;;;5069667;28;20411;-69
2023/07/17 01:10:09;;;;;;;8.20;2.50;;;20.20;1.00;;;;;;5069615;28;20445;-69
2023/07/17 01:12:36;;;;;;;6.88;2.60;;;20.10;1.00;;;;;;5069617;28;20479;-69
2023/07/17 01:15:02;;;;;;;7.40;2.50;;;20.20;99.90;;;;;;5069275;28;20395;-69
2023/07/17 01:17:28;;;;;;;7.47;2.30;;;20.30;1.00;;;;;;5069389;28;20384;-70
2023/07/17 01:19:54;;;;;;;7.23;2.67;;;20.30;98.30;;;;;;5069495;28;20763;-69
2023/07/17 01:22:25;;;;;;;8.30;2.25;;;20.30;94.10;;;;;;5069514;28;20423;-69
2023/07/17 01:24:51;;;;;;;7.15;2.40;;;20.40;87.10;;;;;;5063316;28;20398;-69
2023/07/17 01:27:17;;;;;;;6.70;2.28;;;20.40;99.90;;;;;;5049177;28;20454;-69
2023/07/17 01:29:43;;;;;;;8.48;2.90;;;20.30;1.00;;;;;;5049284;28;20734;-69
2023/07/17 01:32:08;;;;;;;7.30;2.40;;;20.20;1.00;;;;;;5054959;28;20396;-69
2023/07/17 01:34:35;;;;;;;6.33;2.40;;;20.30;99.90;;;;;;5069546;28;20758;-68
2023/07/17 01:37:01;;;;;;;6.40;2.10;;;20.40;99.90;;;;;;5070262;28;20470;-69
2023/07/17 01:39:26;;;;;;;7.93;2.70;;;20.40;87.70;;;;;;5070465;28;20467;-69
2023/07/17 01:41:52;;;;;;;7.60;2.67;;;20.50;1.00;;;;;;5069588;28;20426;-69
2023/07/17 01:44:17;;;;;;;7.90;2.37;;;20.60;99.90;;;;;;5069751;28;20384;-69
2023/07/17 01:46:43;;;;;;;6.80;2.30;;;20.70;99.90;;;;;;5068879;28;20386;-70
2023/07/17 01:49:08;;;;;;;7.38;2.08;;;20.70;99.90;;;;;;5069020;28;20952;-69
2023/07/17 01:51:34;;;;;;;6.80;2.40;;;20.70;99.90;;;;;;5068979;28;20395;-69
2023/07/17 01:54:00;;;;;;;7.38;2.30;;;20.70;1.00;;;;;;5068267;28;20410;-69
2023/07/17 01:56:25;;;;;;;7.57;2.30;;;20.70;1.00;;;;;;5068601;28;20419;-69
2023/07/17 01:58:51;;;;;;;7.53;2.43;;;20.70;1.00;;;;;;5068155;28;20386;-69
2023/07/17 02:01:18;;;;;;;6.90;2.10;;;20.70;1.00;;;;;;5049493;28;20494;-69
2023/07/17 02:03:43;;;;;;;8.40;1.90;;;20.80;99.90;;;;;;5068652;28;20463;-69
2023/07/17 02:06:09;;;;;;;8.03;2.30;;;20.70;99.90;;;;;;5068432;28;20487;-69
2023/07/17 02:08:34;;;;;;;7.82;2.20;;;20.70;99.90;;;;;;5068650;28;20388;-68
2023/07/17 02:11:00;;;;;;;8.98;2.70;;;20.70;99.90;;;;;;5068540;28;20391;-69
2023/07/17 02:13:25;;;;;;;7.25;2.40;;;20.70;99.90;;;;;;5068826;28;20396;-69
2023/07/17 02:15:51;;;;;;;6.28;1.85;;;20.60;1.00;;;;;;5068235;28;20396;-69
2023/07/17 02:18:17;;;;;;;6.63;2.13;;;20.40;99.90;;;;;;5068504;28;20441;-69
2023/07/17 02:20:43;;;;;;;7.00;2.42;;;20.40;1.00;;;;;;5068342;28;20404;-69
2023/07/17 02:23:08;;;;;;;6.50;2.40;;;20.30;99.90;;;;;;5068396;28;20460;-68
2023/07/17 02:25:34;;;;;;;7.60;2.60;;;20.20;1.00;;;;;;5067783;28;20807;-69
2023/07/17 02:27:59;;;;;;;8.23;2.60;;;20.20;1.00;;;;;;5067816;28;20391;-69
2023/07/17 02:30:25;;;;;;;7.33;2.30;;;20.10;1.00;;;;;;5068155;28;20914;-69
2023/07/17 02:32:51;;;;;;;7.37;2.30;;;20.00;1.00;;;;;;5068335;28;20464;-69
2023/07/17 02:35:17;;;;;;;9.45;2.30;;;19.90;99.90;;;;;;5068152;28;20457;-69
2023/07/17 02:37:42;;;;;;;7.37;2.20;;;19.80;99.90;;;;;;5068090;28;20424;-69
2023/07/17 02:40:11;;;;;;;6.70;2.20;;;19.90;99.90;;;;;;5067803;28;20388;-69
2023/07/17 02:42:37;;;;;;;7.75;2.50;;;19.80;99.90;;;;;;5067774;28;20618;-69
2023/07/17 02:45:03;;;;;;;7.82;2.38;;;19.70;99.90;;;;;;5067947;28;20384;-69
2023/07/17 02:47:29;;;;;;;8.40;2.60;;;19.70;1.00;;;;;;5067599;28;20372;-69
2023/07/17 02:49:55;;;;;;;8.77;1.90;;;19.70;99.90;;;;;;5068386;28;21048;-69
2023/07/17 02:52:20;;;;;;;8.93;2.30;;;19.70;1.00;;;;;;5067924;28;20391;-69
2023/07/17 02:54:46;;;;;;;6.90;2.00;;;19.60;99.90;;;;;;5067600;28;20468;-69
2023/07/17 02:57:12;;;;;;;7.75;2.30;;;19.60;99.90;;;;;;5067117;28;20379;-69
2023/07/17 02:59:37;;;;;;;8.23;2.10;;;19.60;99.90;;;;;;5068028;28;20384;-68
2023/07/17 03:02:05;;;;;;;6.00;1.97;;;19.60;99.90;;;;;;5068271;28;20431;-69
2023/07/17 03:04:30;;;;;;;7.10;2.00;;;19.60;99.90;;;;;;5063982;28;20858;-69
2023/07/17 03:06:56;;;;;;;6.57;2.30;;;19.70;1.00;;;;;;5055672;28;20383;-69
2023/07/17 03:09:23;;;;;;;5.82;1.95;;;19.70;1.00;;;;;;5067061;28;20384;-69
2023/07/17 03:11:49;;;;;;;8.25;2.50;;;19.70;1.00;;;;;;5066974;28;20387;-69
2023/07/17 03:14:14;;;;;;;8.70;2.10;;;19.70;1.00;;;;;;5067161;28;20391;-69
2023/07/17 03:16:40;;;;;;;7.80;2.10;;;19.90;99.90;;;;;;5067462;28;20411;-69
2023/07/17 03:19:06;;;;;;;8.30;1.90;;;19.90;1.00;;;;;;5067476;28;20440;-69
2023/07/17 03:21:32;;;;;;;6.60;1.93;;;20.00;1.00;;;;;;5060738;28;20503;-69
2023/07/17 03:23:57;;;;;;;6.63;2.20;;;20.00;99.90;;;;;;5029885;28;20402;-69
2023/07/17 03:26:23;;;;;;;7.28;1.98;;;20.10;99.90;;;;;;5060970;28;20885;-70
2023/07/17 03:28:48;;;;;;;8.45;1.83;;;20.10;1.00;;;;;;5052525;28;20463;-69
2023/07/17 03:31:14;;;;;;;7.43;2.40;;;20.10;1.00;;;;;;5056468;28;20774;-69
2023/07/17 03:33:39;;;;;;;7.00;2.10;;;20.10;10.70;;;;;;5067910;28;20391;-70
2023/07/17 03:36:06;;;;;;;6.90;2.30;;;20.10;99.90;;;;;;5067442;28;20379;-68
2023/07/17 03:38:32;;;;;;;5.85;1.80;;;20.20;1.00;;;;;;5067250;28;20704;-69
2023/07/17 03:40:57;;;;;;;6.70;1.80;;;20.00;99.90;;;;;;5067227;28;20453;-69
2023/07/17 03:43:23;;;;;;;8.50;2.40;;;20.10;1.00;;;;;;5069144;28;21001;-69
2023/07/17 03:45:51;;;;;;;7.07;2.10;;;20.10;99.90;;;;;;5071158;28;20416;-69
2023/07/17 03:48:17;;;;;;;6.60;1.83;;;20.10;1.00;;;;;;5071157;28;20394;-69
2023/07/17 03:50:43;;;;;;;6.93;2.28;;;20.10;99.90;;;;;;5071140;28;20384;-69
2023/07/17 03:53:08;;;;;;;7.00;1.95;;;20.10;99.90;;;;;;5071605;28;21194;-69
2023/07/17 03:55:34;;;;;;;7.50;2.15;;;20.20;99.90;;;;;;5070761;28;20475;-69
2023/07/17 03:58:00;;;;;;;9.07;2.00;;;20.20;99.90;;;;;;5070355;28;20383;-69
2023/07/17 04:00:25;;;;;;;9.93;2.60;;;20.10;1.00;;;;;;5070132;28;20900;-69
2023/07/17 04:02:51;;;;;;;7.07;2.40;;;20.00;1.00;;;;;;5070568;28;20491;-69
2023/07/17 04:05:16;;;;;;;6.63;2.20;;;20.00;99.90;;;;;;5070980;28;20400;-69
2023/07/17 04:07:42;;;;;;;7.27;1.90;;;20.00;1.00;;;;;;5070876;28;20753;-69
2023/07/17 04:10:08;;;;;;;6.90;2.00;;;19.90;38.90;;;;;;5070887;28;20891;-74
2023/07/17 04:12:33;;;;;;;8.30;2.35;;;19.90;99.90;;;;;;5071027;28;20801;-76
2023/07/17 04:15:01;;;;;;;6.07;1.90;;;19.80;1.00;;;;;;5071390;28;21302;-77
2023/07/17 04:17:26;;;;;;;6.30;1.90;;;19.60;99.90;;;;;;5072237;28;20982;-77
2023/07/17 04:19:52;;;;;;;5.90;1.70;;;19.70;1.00;;;;;;5071869;28;20883;-77
2023/07/17 04:22:17;;;;;;;6.40;2.23;;;19.70;90.30;;;;;;5062025;28;20419;-77
2023/07/17 04:24:43;;;;;;;7.20;2.30;;;19.80;99.90;;;;;;5066925;28;20921;-78
2023/07/17 04:27:08;;;;;;;7.00;2.03;;;19.80;58.50;;;;;;5051214;28;20404;-78
2023/07/17 04:29:34;;;;;;;6.70;2.17;;;19.80;99.90;;;;;;5051987;28;20397;-78
2023/07/17 04:31:59;;;;;;;6.57;1.80;;;19.80;99.90;;;;;;5052141;28;20480;-78
2023/07/17 04:34:25;;;;;;;9.03;2.50;;;19.80;99.90;;;;;;5033958;28;20480;-77
2023/07/17 04:36:50;;;;;;;9.00;2.40;;;19.90;1.00;;;;;;5050951;28;20442;-78
2023/07/17 04:39:16;;;;;;;7.20;2.35;;;19.90;1.00;;;;;;5058614;28;20380;-78
2023/07/17 04:41:41;;;;;;;6.70;2.15;;;20.10;99.90;;;;;;5066528;28;20424;-77
2023/07/17 04:44:07;;;;;;;6.38;2.50;;;20.00;1.00;;;;;;5051253;28;20706;-77
2023/07/17 04:46:33;;;;;;;8.05;2.78;;;20.10;1.00;;;;;;5052596;28;20888;-78
2023/07/17 04:48:59;;;;;;;6.93;2.33;;;20.10;99.90;;;;;;5058885;28;20380;-78
2023/07/17 04:51:25;;;;;;;6.88;2.03;;;20.20;1.00;;;;;;5045981;28;20923;-77
2023/07/17 04:53:51;;;;;;;7.88;2.38;;;20.20;1.00;;;;;;5069727;28;20392;-77
2023/07/17 04:56:17;;;;;;;6.50;2.00;;;20.10;99.90;;;;;;5041580;28;20388;-78
2023/07/17 04:58:42;;;;;;;7.20;2.30;;;20.20;1.00;;;;;;5070610;28;20941;-79
2023/07/17 05:01:08;;;;;;;7.40;2.15;;;20.40;99.90;;;;;;5070956;28;20434;-77
2023/07/17 05:03:33;;;;;;;9.70;2.30;;;20.70;1.00;;;;;;5071090;28;20469;-77
2023/07/17 05:06:00;;;;;;;7.50;2.53;;;21.30;99.90;;;;;;5075590;28;20392;-76
2023/07/17 05:08:26;;;;;;;7.80;2.00;;;22.10;99.90;;;;;;5067079;28;20906;-77
2023/07/17 05:10:53;;;;;;;12.93;2.63;;;23.00;92.70;;;;;;5069895;28;20419;-78
2023/07/17 05:13:18;;;;;;;7.63;2.23;;;24.00;1.00;;;;;;5069970;28;20392;-70
2023/07/17 05:15:44;;;;;;;8.27;2.30;;;24.70;1.00;;;;;;5069293;28;20396;-70
2023/07/17 05:18:09;;;;;;;9.07;2.30;;;25.60;1.00;;;;;;5058392;28;20407;-69
2023/07/17 05:20:35;;;;;;;7.90;2.37;;;26.10;99.90;;;;;;5070037;28;20510;-70
2023/07/17 05:23:00;;;;;;;8.20;1.97;;;26.20;99.90;;;;;;5070087;28;20451;-70
2023/07/17 05:25:26;;;;;;;7.60;2.40;;;26.30;99.90;;;;;;5059173;28;20396;-70
2023/07/17 05:27:51;;;;;;;7.30;2.30;;;26.40;99.90;;;;;;5064204;28;20400;-69
2023/07/17 05:30:17;;;;;;;8.80;2.00;;;26.90;99.90;;;;;;5069918;28;20431;-69
2023/07/17 05:32:43;;;;;;;8.10;2.20;;;27.60;99.90;;;;;;5056467;28;20393;-69
2023/07/17 05:35:08;;;;;;;8.10;2.40;;;28.30;99.90;;;;;;5032027;28;20381;-69
2023/07/17 05:37:34;;;;;;;7.65;2.20;;;28.70;99.90;;;;;;5049006;28;20392;-69
2023/07/17 05:39:59;;;;;;;6.22;2.10;;;29.50;99.90;;;;;;5049878;28;20874;-68
2023/07/17 05:42:25;;;;;;;7.20;2.00;;;29.30;99.90;;;;;;5049957;28;20422;-69
2023/07/17 05:44:50;;;;;;;7.80;1.80;;;28.20;99.90;;;;;;5049564;28;20476;-69
2023/07/17 05:47:16;;;;;;;6.03;1.60;;;27.20;99.90;;;;;;5067197;28;20891;-69
2023/07/17 05:49:41;;;;;;;10.95;2.40;;;26.50;99.90;;;;;;5069568;28;20399;-69
2023/07/17 05:52:07;;;;;;;9.00;1.90;;;26.10;99.90;;;;;;5068674;28;20388;-69
2023/07/17 05:54:33;;;;;;;9.95;2.20;;;25.80;99.90;;;;;;5068803;28;20545;-68
2023/07/17 05:56:59;;;;;;;6.70;2.00;;;26.00;99.90;;;;;;5069770;28;20486;-68
2023/07/17 05:59:25;;;;;;;8.48;2.40;;;26.10;99.90;;;;;;5070089;28;20411;-68
2023/07/17 06:01:50;;;;;;;8.60;2.10;;;25.70;99.90;;;;;;5071181;28;20438;-69
2023/07/17 06:04:16;;;;;;;9.20;2.10;;;25.30;99.90;;;;;;5081768;28;20582;-68
2023/07/17 06:06:41;;;;;;;7.00;2.10;;;24.80;99.90;;;;;;5082870;28;20946;-68
2023/07/17 06:09:07;;;;;;;8.63;2.17;;;24.50;99.90;;;;;;5076451;28;20379;-68
2023/07/17 06:11:32;;;;;;;6.57;1.80;;;24.50;99.90;;;;;;5078019;28;20399;-69
2023/07/17 06:13:58;;;;;;;8.10;2.70;;;24.40;99.90;;;;;;5071025;28;20872;-68
2023/07/17 06:16:24;;;;;;;9.00;1.87;;;24.10;99.90;;;;;;5072878;28;20392;-68
2023/07/17 06:18:49;;;;;;;9.37;2.40;;;23.90;99.90;;;;;;5078963;28;20464;-69
2023/07/17 06:21:15;;;;;;;7.60;2.13;;;24.10;99.90;;;;;;5087651;28;20506;-69
2023/07/17 06:23:40;;;;;;;10.13;2.40;;;24.60;99.90;;;;;;5093233;28;20470;-72
2023/07/17 06:26:06;;;;;;;7.10;2.08;;;25.00;99.90;;;;;;5077387;28;20756;-69
2023/07/17 06:28:32;;;;;;;8.15;2.55;;;26.20;99.90;;;;;;5073298;28;20811;-69
2023/07/17 06:30:58;;;;;;;9.90;2.10;;;27.30;99.90;;;;;;5053393;28;20415;-69
2023/07/17 06:33:24;;;;;;;6.90;1.95;;;27.00;99.90;;;;;;5072140;28;20476;-69
2023/07/17 06:35:49;;;;;;;8.07;2.58;;;27.20;99.90;;;;;;5072209;28;20399;-69
2023/07/17 06:38:15;;;;;;;7.93;2.30;;;27.50;99.90;;;;;;5071189;28;20379;-69
2023/07/17 06:40:41;;;;;;;6.33;1.90;;;27.30;99.90;;;;;;5085866;28;20410;-69
2023/07/17 06:43:06;;;;;;;7.20;1.93;;;27.60;99.90;;;;;;5089618;28;20386;-69
2023/07/17 06:45:34;;;;;;;8.40;2.40;;;27.40;99.90;;;;;;5089805;28;20427;-69
2023/07/17 06:47:59;;;;;;;6.82;1.88;;;28.10;99.90;;;;;;5089844;28;20767;-70
2023/07/17 06:50:25;;;;;;;7.63;2.10;;;29.10;99.90;;;;;;5089597;28;20433;-70
2023/07/17 06:52:50;;;;;;;7.30;1.75;;;29.60;99.90;;;;;;5089024;28;20378;-70
2023/07/17 06:55:16;;;;;;;7.23;2.30;;;29.70;99.90;;;;;;5079119;28;20713;-70
2023/07/17 06:57:41;;;;;;;12.00;2.40;;;29.70;99.90;;;;;;5068221;28;20745;-70
2023/07/17 07:00:07;;;;;;;8.20;2.00;;;29.80;99.90;;;;;;5068542;28;20817;-70
2023/07/17 07:02:34;;;;;;;9.20;2.17;;;30.50;99.90;;;;;;5068087;28;20935;-70
2023/07/17 07:05:00;;;;;;;7.53;2.10;;;30.80;99.90;;;;;;5068561;28;20387;-70
2023/07/17 07:07:25;;;;;;;6.45;1.88;;;31.10;99.90;;;;;;5069029;28;20411;-70
2023/07/17 07:09:51;;;;;;;6.90;1.93;;;31.90;99.90;;;;;;5068784;28;20411;-69
2023/07/17 07:12:17;;;;;;;6.73;1.93;;;32.00;99.90;;;;;;5068506;28;20445;-70
2023/07/17 07:14:43;;;;;;;11.20;2.10;;;32.00;99.90;;;;;;5084563;28;20859;-70
2023/07/17 07:17:09;;;;;;;7.90;3.03;;;31.20;99.90;;;;;;5087787;28;20429;-70
2023/07/17 07:19:34;;;;;;;7.20;2.30;;;30.90;99.90;;;;;;5087671;28;20393;-70
2023/07/17 07:22:00;;;;;;;8.50;2.40;;;31.10;99.90;;;;;;5088419;28;20421;-70
2023/07/17 07:24:26;;;;;;;7.90;2.40;;;31.40;99.90;;;;;;5086246;28;20421;-70
2023/07/17 07:26:51;;;;;;;8.85;2.40;;;31.70;99.90;;;;;;5067627;28;20425;-70
2023/07/17 07:29:17;;;;;;;7.80;2.40;;;31.80;99.90;;;;;;5068147;28;20407;-70
2023/07/17 07:31:42;;;;;;;7.57;2.00;;;31.90;99.90;;;;;;5068557;28;20797;-70
2023/07/17 07:34:08;;;;;;;7.80;2.27;;;31.50;99.90;;;;;;5068067;28;20395;-69
2023/07/17 07:36:33;;;;;;;8.15;2.65;;;30.40;99.90;;;;;;5068275;28;20388;-70
2023/07/17 07:38:59;;;;;;;9.23;2.50;;;30.30;99.90;;;;;;5067827;28;20485;-70
2023/07/17 07:41:24;;;;;;;9.57;2.33;;;31.10;99.90;;;;;;5068093;28;20995;-70
2023/07/17 07:43:50;;;;;;;8.43;2.60;;;32.10;99.90;;;;;;5068238;28;20435;-70
2023/07/17 07:46:16;;;;;;;8.32;2.80;;;32.80;99.90;;;;;;5049933;28;20978;-70
2023/07/17 07:48:41;;;;;;;8.40;2.27;;;33.20;99.90;;;;;;5067970;28;20384;-70
2023/07/17 07:51:07;;;;;;;7.93;2.80;;;32.80;99.90;;;;;;5067718;28;20384;-69
2023/07/17 07:53:32;;;;;;;8.73;2.72;;;33.10;99.90;;;;;;5068107;28;20466;-70
2023/07/17 07:56:00;;;;;;;8.00;2.77;;;33.60;99.90;;;;;;5068304;28;20388;-70
2023/07/17 07:58:26;;;;;;;7.90;2.40;;;33.70;99.90;;;;;;5068281;28;20869;-70
2023/07/17 08:00:52;;;;;;;7.97;2.73;;;33.70;99.90;;;;;;5068286;28;20423;-70
2023/07/17 08:03:17;;;;;;;6.85;2.20;;;33.50;99.90;;;;;;5067928;28;20415;-70
2023/07/17 08:05:43;;;;;;;9.10;2.67;;;33.10;99.90;;;;;;5067546;28;20380;-70
2023/07/17 08:08:08;;;;;;;7.00;2.72;;;33.10;99.90;;;;;;5067723;28;20396;-69
2023/07/17 08:10:37;;;;;;;6.93;2.40;;;32.90;99.90;;;;;;5067845;28;20392;-69
2023/07/17 08:13:03;;;;;;;8.27;2.50;;;32.60;99.90;;;;;;5069856;28;20380;-69
2023/07/17 08:15:29;;;;;;;8.40;2.97;;;32.70;99.90;;;;;;5087907;28;20390;-69
2023/07/17 08:17:54;;;;;;;7.97;2.50;;;33.40;99.90;;;;;;5088140;28;20449;-69
2023/07/17 08:20:20;;;;;;;7.60;2.85;;;34.30;99.90;;;;;;5087927;28;20378;-70
2023/07/17 08:22:46;;;;;;;7.90;2.50;;;35.30;99.90;;;;;;5090974;28;20406;-69
2023/07/17 08:25:12;;;;;;;7.43;2.50;;;35.00;99.90;;;;;;5088167;28;20380;-69
2023/07/17 08:27:37;;;;;;;9.30;3.10;;;34.80;99.90;;;;;;5067508;28;20456;-69
2023/07/17 08:30:04;;;;;;;8.40;2.97;;;34.90;99.90;;;;;;5069762;28;20394;-69
2023/07/17 08:32:29;;;;;;;8.13;2.30;;;33.20;99.90;;;;;;5071214;28;20392;-69
2023/07/17 08:34:55;;;;;;;7.10;2.27;;;32.50;99.90;;;;;;5071563;28;20420;-69
2023/07/17 08:37:20;;;;;;;7.80;2.83;;;33.20;99.90;;;;;;5071102;28;20752;-69
2023/07/17 08:39:46;;;;;;;6.70;2.30;;;33.90;99.90;;;;;;5071198;28;20387;-69
2023/07/17 08:42:13;;;;;;;8.93;2.63;;;33.30;99.90;;;;;;5070561;28;20415;-69
2023/07/17 08:44:39;;;;;;;7.47;2.30;;;33.80;99.90;;;;;;5052741;28;20984;-69
2023/07/17 08:47:07;;;;;;;7.85;2.83;;;34.50;99.90;;;;;;5070795;28;20426;-70
2023/07/17 08:49:34;;;;;;;7.70;2.60;;;34.70;99.90;;;;;;5070862;28;20383;-69
2023/07/17 08:52:01;;;;;;;8.90;2.75;;;34.10;99.90;;;;;;5070804;28;21337;-69
2023/07/17 08:54:28;;;;;;;8.80;2.63;;;33.50;99.90;;;;;;5071293;28;20876;-70
2023/07/17 08:56:55;;;;;;;7.72;3.30;;;32.10;99.90;;;;;;5071144;28;20388;-70
2023/07/17 08:59:21;;;;;;;8.40;2.80;;;32.30;99.90;;;;;;5070956;28;20388;-71
2023/07/17 09:01:49;;;;;;;11.70;3.10;;;32.50;99.90;;;;;;5070367;28;20450;-69
2023/07/17 09:04:16;;;;;;;9.80;2.90;;;31.30;99.90;;;;;;5070568;28;20397;-69
2023/07/17 09:06:41;;;;;;;10.45;3.30;;;30.50;99.90;;;;;;5070842;28;20418;-69
2023/07/17 09:09:09;;;;;;;7.30;2.30;;;30.20;99.90;;;;;;5052868;28;20391;-70
2023/07/17 09:11:35;;;;;;;10.00;2.97;;;29.90;99.90;;;;;;5068853;28;20471;-70
2023/07/17 09:14:00;;;;;;;9.25;2.60;;;29.80;99.90;;;;;;5060409;28;20585;-69
2023/07/17 09:16:26;;;;;;;8.73;2.60;;;29.50;99.90;;;;;;5050677;28;20378;-69
2023/07/17 09:18:53;;;;;;;9.50;3.10;;;29.40;99.90;;;;;;5050386;28;20485;-70
2023/07/17 09:21:21;;;;;;;9.25;2.30;;;29.90;99.90;;;;;;5031968;28;20426;-70
2023/07/17 09:23:49;;;;;;;8.83;2.33;;;31.00;99.90;;;;;;5049688;28;20385;-70
2023/07/17 09:26:16;;;;;;;8.00;3.00;;;30.70;99.90;;;;;;5067105;28;20380;-69
2023/07/17 09:28:49;;;;;;;8.07;2.80;;;30.40;99.90;;;;;;5069966;28;20444;-70
2023/07/17 09:31:25;;;;;;;8.00;3.00;;;29.90;99.90;;;;;;5070495;28;20387;-69
2023/07/17 09:34:11;;;;;;;7.30;2.80;;;29.20;99.90;;;;;;5070014;28;20479;-69
2023/07/17 09:36:36;;;;;;;7.90;2.50;;;28.90;99.90;;;;;;5070543;28;20395;-69
2023/07/17 09:39:05;;;;;;;10.67;2.90;;;29.00;99.90;;;;;;5070059;28;20386;-69
2023/07/17 09:41:30;;;;;;;7.63;2.70;;;29.20;99.90;;;;;;5068985;28;20416;-69
2023/07/17 09:44:00;;;;;;;8.40;2.72;;;29.30;99.90;;;;;;5071074;28;20890;-69
2023/07/17 09:46:26;;;;;;;9.20;2.90;;;29.30;99.90;;;;;;5070270;28;20464;-69
2023/07/17 09:48:54;;;;;;;9.67;3.03;;;29.90;99.90;;;;;;5052179;28;20697;-69
2023/07/17 09:51:20;;;;;;;10.00;2.53;;;30.60;99.90;;;;;;5069498;28;20387;-70
2023/07/17 09:53:47;;;;;;;7.30;2.30;;;30.30;99.90;;;;;;5070068;28;20821;-70
2023/07/17 09:56:15;;;;;;;11.82;2.85;;;30.10;99.90;;;;;;5052465;28;20928;-70
2023/07/17 09:58:45;;;;;;;8.55;2.95;;;30.10;99.90;;;;;;5049035;28;20775;-69
2023/07/17 10:01:16;;;;;;;7.53;2.20;;;30.70;99.90;;;;;;5049285;28;20421;-70
2023/07/17 10:03:45;;;;;;;9.25;2.90;;;32.10;99.90;;;;;;5068950;28;20429;-70
2023/07/17 10:06:12;;;;;;;11.40;2.60;;;32.10;99.90;;;;;;5069195;28;20452;-70
2023/07/17 10:08:40;;;;;;;9.20;3.10;;;33.50;99.90;;;;;;5069688;28;20852;-70
2023/07/17 10:11:05;;;;;;;9.40;3.10;;;34.00;99.90;;;;;;5069461;28;20392;-70
2023/07/17 10:13:31;;;;;;;10.27;3.20;;;32.90;99.90;;;;;;5074832;28;20382;-71
2023/07/17 10:15:57;;;;;;;8.05;3.10;;;32.70;99.90;;;;;;5090193;28;20382;-70
2023/07/17 10:18:24;;;;;;;7.68;2.60;;;32.00;99.90;;;;;;5089415;28;20424;-70
2023/07/17 10:20:54;;;;;;;8.90;3.42;;;30.90;99.90;;;;;;5091341;28;20413;-69
2023/07/17 10:23:27;;;;;;;9.05;3.20;;;30.20;99.90;;;;;;5089302;28;20374;-70
2023/07/17 10:26:06;;;;;;;9.18;3.10;;;29.20;99.90;;;;;;5074644;28;20391;-69
2023/07/17 10:28:34;;;;;;;9.00;2.75;;;29.00;99.90;;;;;;5068705;28;20395;-70
2023/07/17 10:31:09;;;;;;;9.80;2.50;;;29.40;99.90;;;;;;5068647;28;20384;-70
2023/07/17 10:33:38;;;;;;;8.95;3.22;;;29.50;99.90;;;;;;5069133;28;20516;-69
2023/07/17 10:36:04;;;;;;;8.57;3.15;;;29.20;99.90;;;;;;5068953;28;20395;-69
2023/07/17 10:38:40;;;;;;;9.15;3.10;;;28.80;99.90;;;;;;5068636;28;20812;-69
2023/07/17 10:41:13;;;;;;;7.70;2.80;;;28.20;99.90;;;;;;5068489;28;20458;-69
2023/07/17 10:43:54;;;;;;;9.43;3.05;;;27.90;99.90;;;;;;5067670;28;20439;-69
2023/07/17 10:46:26;;;;;;;6.78;2.30;;;28.00;99.90;;;;;;5068271;28;20800;-69
2023/07/17 10:48:51;;;;;;;8.10;2.60;;;28.00;99.90;;;;;;5068272;28;20399;-69
2023/07/17 10:51:17;;;;;;;10.33;3.00;;;27.60;99.90;;;;;;5068010;28;20396;-69
2023/07/17 10:53:42;;;;;;;9.77;3.20;;;27.70;99.90;;;;;;5067952;28;20817;-69
2023/07/17 10:56:08;;;;;;;8.40;2.80;;;28.00;99.90;;;;;;5068125;28;20383;-69
2023/07/17 10:58:34;;;;;;;8.27;2.72;;;28.30;99.90;;;;;;5067860;28;20415;-70
2023/07/17 11:01:07;;;;;;;11.37;3.13;;;28.60;99.90;;;;;;5069169;28;20895;-69
2023/07/17 11:03:32;;;;;;;10.57;3.40;;;28.90;99.90;;;;;;5068517;28;20415;-69
2023/07/17 11:05:58;;;;;;;9.20;3.30;;;29.10;99.90;;;;;;5068839;28;20748;-69
2023/07/17 11:08:26;;;;;;;8.33;3.23;;;29.10;99.90;;;;;;5050527;28;20388;-69
2023/07/17 11:10:52;;;;;;;7.68;3.00;;;29.40;99.90;;;;;;5068635;28;20394;-70
2023/07/17 11:13:18;;;;;;;7.87;2.53;;;29.90;99.90;;;;;;5072400;28;20390;-69
2023/07/17 11:15:44;;;;;;;8.10;2.30;;;29.50;99.90;;;;;;5088347;28;20378;-69
2023/07/17 11:18:10;;;;;;;9.03;3.07;;;29.50;99.90;;;;;;5088179;28;20572;-70
2023/07/17 11:20:35;;;;;;;9.50;3.20;;;30.00;99.90;;;;;;5088312;28;21021;-69
2023/07/17 11:23:03;;;;;;;9.30;2.80;;;29.70;99.90;;;;;;5088167;28;20783;-70
2023/07/17 11:25:30;;;;;;;9.23;2.90;;;29.90;99.90;;;;;;5076870;28;20395;-70
2023/07/17 11:27:58;;;;;;;9.13;3.00;;;30.20;99.90;;;;;;5068512;28;20485;-70
2023/07/17 11:30:34;;;;;;;8.60;2.55;;;30.00;99.90;;;;;;5068457;28;20395;-70
2023/07/17 11:33:05;;;;;;;8.80;2.67;;;30.00;99.90;;;;;;5068305;28;20396;-70
2023/07/17 11:35:37;;;;;;;8.40;2.97;;;30.50;99.90;;;;;;5067674;28;20387;-70
2023/07/17 11:38:05;;;;;;;9.40;2.97;;;30.10;99.90;;;;;;5069732;28;20398;-70
2023/07/17 11:40:31;;;;;;;6.97;2.60;;;30.10;99.90;;;;;;5052665;28;20380;-70
2023/07/17 11:43:02;;;;;;;8.60;2.85;;;30.20;99.90;;;;;;5070382;28;20403;-70
2023/07/17 11:45:28;;;;;;;7.38;2.55;;;30.60;99.90;;;;;;5050980;28;20880;-70
2023/07/17 11:47:55;;;;;;;8.80;2.70;;;31.00;99.90;;;;;;5070032;28;20388;-70
2023/07/17 11:50:24;;;;;;;9.52;2.63;;;30.90;99.90;;;;;;5068935;28;20471;-70
2023/07/17 11:53:06;;;;;;;9.23;3.00;;;30.40;99.90;;;;;;5068586;28;20820;-70
2023/07/17 11:55:35;;;;;;;9.43;3.00;;;30.70;99.90;;;;;;5069171;28;20390;-69
2023/07/17 11:58:11;;;;;;;7.97;2.28;;;30.70;99.90;;;;;;5068596;28;20486;-69
2023/07/17 12:00:40;;;;;;;8.52;2.55;;;30.60;99.90;;;;;;5069054;28;20380;-69
2023/07/17 12:03:05;;;;;;;10.30;2.70;;;30.70;99.90;;;;;;5068155;28;20423;-70
2023/07/17 12:05:31;;;;;;;9.30;3.30;;;31.00;99.90;;;;;;5072006;28;20431;-70
2023/07/17 12:07:56;;;;;;;8.47;2.90;;;31.20;99.90;;;;;;5072669;28;20419;-70
2023/07/17 12:10:22;;;;;;;7.97;2.83;;;31.40;99.90;;;;;;5071824;28;20422;-70
2023/07/17 12:12:47;;;;;;;7.27;2.70;;;31.50;99.90;;;;;;5071600;28;20445;-70
2023/07/17 12:15:13;;;;;;;7.50;2.33;;;31.50;99.90;;;;;;5051580;28;20376;-70
2023/07/17 12:17:38;;;;;;;7.30;2.60;;;31.40;99.90;;;;;;5052581;28;20390;-70
2023/07/17 12:20:05;;;;;;;7.00;2.47;;;31.40;99.90;;;;;;5052352;28;20478;-69
2023/07/17 12:22:30;;;;;;;8.70;2.85;;;30.90;99.90;;;;;;5051655;28;20448;-69
2023/07/17 12:24:56;;;;;;;9.32;2.95;;;30.80;99.90;;;;;;5051264;28;20385;-69
2023/07/17 12:27:21;;;;;;;8.80;2.50;;;30.50;99.90;;;;;;5051796;28;20480;-69
2023/07/17 12:29:47;;;;;;;7.23;2.70;;;30.50;99.90;;;;;;5050867;28;20390;-69
2023/07/17 12:32:12;;;;;;;8.43;3.10;;;30.80;99.90;;;;;;5052073;28;20397;-69
2023/07/17 12:34:38;;;;;;;7.97;2.90;;;31.00;99.90;;;;;;5051469;28;20411;-69
2023/07/17 12:37:04;;;;;;;8.88;2.75;;;31.10;99.90;;;;;;5033216;28;20400;-69
2023/07/17 12:39:30;;;;;;;9.43;2.40;;;31.20;99.90;;;;;;5050908;28;20469;-69
2023/07/17 12:41:55;;;;;;;10.13;2.90;;;31.50;99.90;;;;;;5051655;28;20993;-69
2023/07/17 12:44:21;;;;;;;8.10;3.10;;;31.70;99.90;;;;;;5051275;28;20393;-69